sensor_id;sensor_type;location;lat;lon;timestamp;P1;durP1;ratioP1;P2;durP2;ratioP2
8714;SDS011;4394;51.208;8.904;2022-07-29T00:01:09;2.47;;;1.43;;
8714;SDS011;4394;51.208;8.904;2022-07-29T00:04:05;1.97;;;1.77;;
8714;SDS011;4394;51.208;8.904;2022-07-29T00:06:53;3.10;;;1.50;;
8714;SDS011;4394;51.208;8.904;2022-07-29T00:09:42;3.40;;;1.77;;
8714;SDS011;4394;51.208;8.904;2022-07-29T00:12:37;1.70;;;1.27;;
8714;SDS011;4394;51.208;8.904;2022-07-29T00:15:27;2.20;;;1.70;;
8714;SDS011;4394;51.208;8.904;2022-07-29T00:18:16;2.67;;;1.90;;
8714;SDS011;4394;51.208;8.904;2022-07-29T00:21:04;5.70;;;1.73;;
8714;SDS011;4394;51.208;8.904;2022-07-29T00:23:53;3.57;;;1.90;;
8714;SDS011;4394;51.208;8.904;2022-07-29T00:26:40;3.90;;;1.70;;
8714;SDS011;4394;51.208;8.904;2022-07-29T00:29:29;5.07;;;1.80;;
8714;SDS011;4394;51.208;8.904;2022-07-29T00:32:21;4.20;;;1.80;;
8714;SDS011;4394;51.208;8.904;2022-07-29T00:35:10;4.43;;;1.80;;
8714;SDS011;4394;51.208;8.904;2022-07-29T00:38:17;3.77;;;2.27;;
8714;SDS011;4394;51.208;8.904;2022-07-29T00:41:06;8.77;;;3.83;;
8714;SDS011;4394;51.208;8.904;2022-07-29T00:43:54;7.77;;;4.97;;
8714;SDS011;4394;51.208;8.904;2022-07-29T00:46:43;23.97;;;11.00;;
8714;SDS011;4394;51.208;8.904;2022-07-29T00:49:33;34.07;;;15.93;;
8714;SDS011;4394;51.208;8.904;2022-07-29T00:52:22;28.77;;;15.37;;
8714;SDS011;4394;51.208;8.904;2022-07-29T00:55:10;32.77;;;15.73;;
8714;SDS011;4394;51.208;8.904;2022-07-29T00:58:00;25.70;;;13.20;;
8714;SDS011;4394;51.208;8.904;2022-07-29T01:00:48;23.63;;;12.27;;
8714;SDS011;4394;51.208;8.904;2022-07-29T01:03:36;20.00;;;11.77;;
8714;SDS011;4394;51.208;8.904;2022-07-29T01:06:26;21.60;;;10.50;;
8714;SDS011;4394;51.208;8.904;2022-07-29T01:09:18;21.33;;;10.00;;
8714;SDS011;4394;51.208;8.904;2022-07-29T01:12:27;13.70;;;7.37;;
8714;SDS011;4394;51.208;8.904;2022-07-29T01:15:18;15.20;;;7.80;;
8714;SDS011;4394;51.208;8.904;2022-07-29T01:18:11;15.97;;;6.67;;
8714;SDS011;4394;51.208;8.904;2022-07-29T01:21:27;11.13;;;5.20;;
8714;SDS011;4394;51.208;8.904;2022-07-29T01:24:43;7.67;;;3.63;;
8714;SDS011;4394;51.208;8.904;2022-07-29T01:27:51;6.07;;;2.83;;
8714;SDS011;4394;51.208;8.904;2022-07-29T01:30:50;8.00;;;2.70;;
8714;SDS011;4394;51.208;8.904;2022-07-29T01:33:43;5.33;;;2.87;;
8714;SDS011;4394;51.208;8.904;2022-07-29T01:36:40;5.53;;;3.80;;
8714;SDS011;4394;51.208;8.904;2022-07-29T01:39:33;8.07;;;3.37;;
8714;SDS011;4394;51.208;8.904;2022-07-29T01:42:26;8.57;;;4.80;;
8714;SDS011;4394;51.208;8.904;2022-07-29T01:45:18;7.70;;;4.00;;
8714;SDS011;4394;51.208;8.904;2022-07-29T01:48:12;7.70;;;2.50;;
8714;SDS011;4394;51.208;8.904;2022-07-29T01:51:04;5.53;;;2.60;;
8714;SDS011;4394;51.208;8.904;2022-07-29T01:53:59;3.90;;;2.93;;
8714;SDS011;4394;51.208;8.904;2022-07-29T01:56:51;5.23;;;2.40;;
8714;SDS011;4394;51.208;8.904;2022-07-29T01:59:44;4.50;;;2.43;;
8714;SDS011;4394;51.208;8.904;2022-07-29T02:02:35;4.83;;;2.33;;
8714;SDS011;4394;51.208;8.904;2022-07-29T02:05:27;2.80;;;2.03;;
8714;SDS011;4394;51.208;8.904;2022-07-29T02:08:18;3.80;;;2.30;;
8714;SDS011;4394;51.208;8.904;2022-07-29T02:11:07;5.40;;;2.20;;
8714;SDS011;4394;51.208;8.904;2022-07-29T02:13:56;2.93;;;1.70;;
8714;SDS011;4394;51.208;8.904;2022-07-29T02:16:48;3.87;;;1.73;;
8714;SDS011;4394;51.208;8.904;2022-07-29T02:19:39;4.13;;;1.47;;
8714;SDS011;4394;51.208;8.904;2022-07-29T02:22:33;6.33;;;1.80;;
8714;SDS011;4394;51.208;8.904;2022-07-29T02:25:25;9.70;;;1.80;;
8714;SDS011;4394;51.208;8.904;2022-07-29T02:28:23;2.63;;;1.47;;
8714;SDS011;4394;51.208;8.904;2022-07-29T02:31:15;2.80;;;1.50;;
8714;SDS011;4394;51.208;8.904;2022-07-29T02:34:06;2.33;;;1.87;;
8714;SDS011;4394;51.208;8.904;2022-07-29T02:36:58;4.77;;;1.73;;
8714;SDS011;4394;51.208;8.904;2022-07-29T02:39:49;2.50;;;1.50;;
8714;SDS011;4394;51.208;8.904;2022-07-29T02:42:41;4.03;;;1.33;;
8714;SDS011;4394;51.208;8.904;2022-07-29T02:45:31;6.77;;;1.40;;
8714;SDS011;4394;51.208;8.904;2022-07-29T02:48:21;7.17;;;1.77;;
8714;SDS011;4394;51.208;8.904;2022-07-29T02:51:16;3.67;;;1.50;;
8714;SDS011;4394;51.208;8.904;2022-07-29T02:54:31;2.10;;;1.30;;
8714;SDS011;4394;51.208;8.904;2022-07-29T02:57:30;3.43;;;1.50;;
8714;SDS011;4394;51.208;8.904;2022-07-29T03:00:39;2.00;;;1.40;;
8714;SDS011;4394;51.208;8.904;2022-07-29T03:03:29;2.80;;;1.47;;
8714;SDS011;4394;51.208;8.904;2022-07-29T03:06:23;2.70;;;1.60;;
8714;SDS011;4394;51.208;8.904;2022-07-29T03:09:23;2.87;;;1.50;;
8714;SDS011;4394;51.208;8.904;2022-07-29T03:12:13;2.53;;;1.23;;
8714;SDS011;4394;51.208;8.904;2022-07-29T03:15:05;3.53;;;1.33;;
8714;SDS011;4394;51.208;8.904;2022-07-29T03:17:54;2.70;;;1.50;;
8714;SDS011;4394;51.208;8.904;2022-07-29T03:20:43;2.93;;;1.50;;
8714;SDS011;4394;51.208;8.904;2022-07-29T03:23:32;4.97;;;1.80;;
8714;SDS011;4394;51.208;8.904;2022-07-29T03:26:22;2.57;;;1.40;;
8714;SDS011;4394;51.208;8.904;2022-07-29T03:29:11;3.47;;;1.63;;
8714;SDS011;4394;51.208;8.904;2022-07-29T03:32:00;3.00;;;1.40;;
8714;SDS011;4394;51.208;8.904;2022-07-29T03:34:53;1.03;;;0.90;;
8714;SDS011;4394;51.208;8.904;2022-07-29T03:37:42;3.37;;;1.80;;
8714;SDS011;4394;51.208;8.904;2022-07-29T03:40:33;3.63;;;1.60;;
8714;SDS011;4394;51.208;8.904;2022-07-29T03:43:26;3.60;;;1.50;;
8714;SDS011;4394;51.208;8.904;2022-07-29T03:46:18;3.80;;;1.33;;
8714;SDS011;4394;51.208;8.904;2022-07-29T03:49:11;3.53;;;1.40;;
8714;SDS011;4394;51.208;8.904;2022-07-29T03:52:02;2.07;;;1.33;;
8714;SDS011;4394;51.208;8.904;2022-07-29T03:54:51;2.80;;;1.67;;
8714;SDS011;4394;51.208;8.904;2022-07-29T03:57:42;3.13;;;1.37;;
8714;SDS011;4394;51.208;8.904;2022-07-29T04:00:31;1.90;;;1.10;;
8714;SDS011;4394;51.208;8.904;2022-07-29T04:03:21;3.00;;;1.40;;
8714;SDS011;4394;51.208;8.904;2022-07-29T04:06:11;2.90;;;1.13;;
8714;SDS011;4394;51.208;8.904;2022-07-29T04:09:00;2.27;;;1.27;;
8714;SDS011;4394;51.208;8.904;2022-07-29T04:11:50;2.20;;;1.03;;
8714;SDS011;4394;51.208;8.904;2022-07-29T04:14:49;2.97;;;1.27;;
8714;SDS011;4394;51.208;8.904;2022-07-29T04:17:38;1.50;;;1.20;;
8714;SDS011;4394;51.208;8.904;2022-07-29T04:20:30;3.77;;;1.27;;
8714;SDS011;4394;51.208;8.904;2022-07-29T04:23:20;3.47;;;1.57;;
8714;SDS011;4394;51.208;8.904;2022-07-29T04:26:09;4.10;;;1.80;;
8714;SDS011;4394;51.208;8.904;2022-07-29T04:28:58;3.70;;;2.10;;
8714;SDS011;4394;51.208;8.904;2022-07-29T04:31:47;4.23;;;1.83;;
8714;SDS011;4394;51.208;8.904;2022-07-29T04:34:35;4.63;;;1.87;;
8714;SDS011;4394;51.208;8.904;2022-07-29T04:37:23;3.20;;;1.57;;
8714;SDS011;4394;51.208;8.904;2022-07-29T04:40:14;3.10;;;1.90;;
8714;SDS011;4394;51.208;8.904;2022-07-29T04:43:02;7.27;;;2.00;;
8714;SDS011;4394;51.208;8.904;2022-07-29T04:45:51;5.53;;;2.20;;
8714;SDS011;4394;51.208;8.904;2022-07-29T04:48:40;5.57;;;2.73;;
8714;SDS011;4394;51.208;8.904;2022-07-29T04:51:28;4.37;;;2.23;;
8714;SDS011;4394;51.208;8.904;2022-07-29T04:54:17;2.93;;;1.80;;
8714;SDS011;4394;51.208;8.904;2022-07-29T04:57:09;2.20;;;1.30;;
8714;SDS011;4394;51.208;8.904;2022-07-29T04:59:58;1.97;;;1.57;;
8714;SDS011;4394;51.208;8.904;2022-07-29T05:02:46;3.33;;;1.40;;
8714;SDS011;4394;51.208;8.904;2022-07-29T05:05:35;3.57;;;1.70;;
8714;SDS011;4394;51.208;8.904;2022-07-29T05:08:23;2.17;;;1.60;;
8714;SDS011;4394;51.208;8.904;2022-07-29T05:11:12;2.63;;;1.63;;
8714;SDS011;4394;51.208;8.904;2022-07-29T05:14:08;2.17;;;1.23;;
8714;SDS011;4394;51.208;8.904;2022-07-29T05:16:59;3.13;;;1.67;;
8714;SDS011;4394;51.208;8.904;2022-07-29T05:19:49;3.63;;;1.60;;
8714;SDS011;4394;51.208;8.904;2022-07-29T05:22:37;2.10;;;1.40;;
8714;SDS011;4394;51.208;8.904;2022-07-29T05:25:26;2.03;;;1.53;;
8714;SDS011;4394;51.208;8.904;2022-07-29T05:28:32;4.60;;;1.70;;
8714;SDS011;4394;51.208;8.904;2022-07-29T05:31:22;3.50;;;2.27;;
8714;SDS011;4394;51.208;8.904;2022-07-29T05:34:10;3.97;;;1.90;;
8714;SDS011;4394;51.208;8.904;2022-07-29T05:36:59;3.93;;;2.30;;
8714;SDS011;4394;51.208;8.904;2022-07-29T05:39:47;5.87;;;2.13;;
8714;SDS011;4394;51.208;8.904;2022-07-29T05:42:44;3.73;;;2.37;;
8714;SDS011;4394;51.208;8.904;2022-07-29T05:45:33;5.20;;;2.70;;
8714;SDS011;4394;51.208;8.904;2022-07-29T05:48:36;5.90;;;2.57;;
8714;SDS011;4394;51.208;8.904;2022-07-29T05:51:26;4.37;;;2.00;;
8714;SDS011;4394;51.208;8.904;2022-07-29T05:54:14;4.03;;;1.80;;
8714;SDS011;4394;51.208;8.904;2022-07-29T05:57:03;1.67;;;1.30;;
8714;SDS011;4394;51.208;8.904;2022-07-29T05:59:52;3.20;;;1.40;;
8714;SDS011;4394;51.208;8.904;2022-07-29T06:02:41;1.70;;;1.60;;
8714;SDS011;4394;51.208;8.904;2022-07-29T06:05:31;2.17;;;1.57;;
8714;SDS011;4394;51.208;8.904;2022-07-29T06:08:19;2.33;;;1.53;;
8714;SDS011;4394;51.208;8.904;2022-07-29T06:11:08;3.33;;;1.60;;
8714;SDS011;4394;51.208;8.904;2022-07-29T06:13:57;1.77;;;1.40;;
8714;SDS011;4394;51.208;8.904;2022-07-29T06:16:45;2.90;;;1.40;;
8714;SDS011;4394;51.208;8.904;2022-07-29T06:19:34;3.30;;;1.30;;
8714;SDS011;4394;51.208;8.904;2022-07-29T06:22:24;3.40;;;1.90;;
8714;SDS011;4394;51.208;8.904;2022-07-29T06:25:12;3.10;;;1.53;;
8714;SDS011;4394;51.208;8.904;2022-07-29T06:28:01;3.83;;;2.00;;
8714;SDS011;4394;51.208;8.904;2022-07-29T06:30:51;2.93;;;1.70;;
8714;SDS011;4394;51.208;8.904;2022-07-29T06:33:39;4.33;;;1.70;;
8714;SDS011;4394;51.208;8.904;2022-07-29T06:36:27;2.50;;;1.50;;
8714;SDS011;4394;51.208;8.904;2022-07-29T06:39:17;2.20;;;1.30;;
8714;SDS011;4394;51.208;8.904;2022-07-29T06:42:06;1.53;;;1.40;;
8714;SDS011;4394;51.208;8.904;2022-07-29T06:44:56;4.30;;;1.50;;
8714;SDS011;4394;51.208;8.904;2022-07-29T06:47:45;3.70;;;1.87;;
8714;SDS011;4394;51.208;8.904;2022-07-29T06:50:35;4.03;;;1.97;;
8714;SDS011;4394;51.208;8.904;2022-07-29T06:53:24;4.40;;;1.83;;
8714;SDS011;4394;51.208;8.904;2022-07-29T06:56:13;4.47;;;1.63;;
8714;SDS011;4394;51.208;8.904;2022-07-29T06:59:02;3.10;;;2.00;;
8714;SDS011;4394;51.208;8.904;2022-07-29T07:01:51;4.63;;;2.13;;
8714;SDS011;4394;51.208;8.904;2022-07-29T07:04:39;5.00;;;1.97;;
8714;SDS011;4394;51.208;8.904;2022-07-29T07:07:29;5.70;;;2.40;;
8714;SDS011;4394;51.208;8.904;2022-07-29T07:10:18;3.60;;;2.20;;
8714;SDS011;4394;51.208;8.904;2022-07-29T07:13:07;2.93;;;2.27;;
8714;SDS011;4394;51.208;8.904;2022-07-29T07:15:56;2.13;;;1.90;;
8714;SDS011;4394;51.208;8.904;2022-07-29T07:18:45;3.13;;;2.03;;
8714;SDS011;4394;51.208;8.904;2022-07-29T07:21:34;3.70;;;2.03;;
8714;SDS011;4394;51.208;8.904;2022-07-29T07:24:23;2.20;;;2.00;;
8714;SDS011;4394;51.208;8.904;2022-07-29T07:27:11;2.70;;;2.17;;
8714;SDS011;4394;51.208;8.904;2022-07-29T07:30:02;3.50;;;1.83;;
8714;SDS011;4394;51.208;8.904;2022-07-29T07:32:51;4.50;;;2.20;;
8714;SDS011;4394;51.208;8.904;2022-07-29T07:35:40;3.03;;;1.90;;
8714;SDS011;4394;51.208;8.904;2022-07-29T07:38:28;4.17;;;2.30;;
8714;SDS011;4394;51.208;8.904;2022-07-29T07:41:17;2.80;;;1.83;;
8714;SDS011;4394;51.208;8.904;2022-07-29T07:44:05;2.87;;;2.07;;
8714;SDS011;4394;51.208;8.904;2022-07-29T07:46:59;2.77;;;2.20;;
8714;SDS011;4394;51.208;8.904;2022-07-29T07:49:54;3.27;;;2.03;;
8714;SDS011;4394;51.208;8.904;2022-07-29T07:52:46;2.30;;;2.10;;
8714;SDS011;4394;51.208;8.904;2022-07-29T07:55:39;4.07;;;2.00;;
8714;SDS011;4394;51.208;8.904;2022-07-29T07:58:48;2.23;;;1.63;;
8714;SDS011;4394;51.208;8.904;2022-07-29T08:01:37;2.90;;;1.90;;
8714;SDS011;4394;51.208;8.904;2022-07-29T08:04:43;4.53;;;1.93;;
8714;SDS011;4394;51.208;8.904;2022-07-29T08:07:31;5.67;;;2.13;;
8714;SDS011;4394;51.208;8.904;2022-07-29T08:10:20;4.00;;;2.10;;
8714;SDS011;4394;51.208;8.904;2022-07-29T08:13:23;4.70;;;1.93;;
8714;SDS011;4394;51.208;8.904;2022-07-29T08:16:14;3.47;;;1.67;;
8714;SDS011;4394;51.208;8.904;2022-07-29T08:19:02;3.83;;;2.23;;
8714;SDS011;4394;51.208;8.904;2022-07-29T08:21:52;2.07;;;1.80;;
8714;SDS011;4394;51.208;8.904;2022-07-29T08:24:41;3.63;;;1.80;;
8714;SDS011;4394;51.208;8.904;2022-07-29T08:27:40;1.93;;;1.73;;
8714;SDS011;4394;51.208;8.904;2022-07-29T08:30:29;3.43;;;1.70;;
8714;SDS011;4394;51.208;8.904;2022-07-29T08:33:18;3.23;;;2.00;;
8714;SDS011;4394;51.208;8.904;2022-07-29T08:36:07;3.97;;;1.97;;
8714;SDS011;4394;51.208;8.904;2022-07-29T08:38:57;3.47;;;1.77;;
8714;SDS011;4394;51.208;8.904;2022-07-29T08:41:46;4.33;;;2.03;;
8714;SDS011;4394;51.208;8.904;2022-07-29T08:44:43;2.37;;;2.00;;
8714;SDS011;4394;51.208;8.904;2022-07-29T08:47:31;5.53;;;2.23;;
8714;SDS011;4394;51.208;8.904;2022-07-29T08:50:22;5.30;;;2.10;;
8714;SDS011;4394;51.208;8.904;2022-07-29T08:53:11;3.10;;;2.10;;
8714;SDS011;4394;51.208;8.904;2022-07-29T08:56:01;3.80;;;2.30;;
8714;SDS011;4394;51.208;8.904;2022-07-29T08:58:50;3.57;;;1.90;;
8714;SDS011;4394;51.208;8.904;2022-07-29T09:01:39;2.40;;;2.10;;
8714;SDS011;4394;51.208;8.904;2022-07-29T09:04:31;2.67;;;2.00;;
8714;SDS011;4394;51.208;8.904;2022-07-29T09:07:23;4.17;;;2.23;;
8714;SDS011;4394;51.208;8.904;2022-07-29T09:10:20;3.40;;;2.00;;
8714;SDS011;4394;51.208;8.904;2022-07-29T09:13:10;4.20;;;1.80;;
8714;SDS011;4394;51.208;8.904;2022-07-29T09:15:58;3.47;;;2.30;;
8714;SDS011;4394;51.208;8.904;2022-07-29T09:18:51;4.83;;;1.97;;
8714;SDS011;4394;51.208;8.904;2022-07-29T09:21:40;2.53;;;2.03;;
8714;SDS011;4394;51.208;8.904;2022-07-29T09:24:49;5.77;;;2.50;;
8714;SDS011;4394;51.208;8.904;2022-07-29T09:27:37;3.80;;;2.20;;
8714;SDS011;4394;51.208;8.904;2022-07-29T09:30:26;4.33;;;2.30;;
8714;SDS011;4394;51.208;8.904;2022-07-29T09:33:17;5.67;;;2.83;;
8714;SDS011;4394;51.208;8.904;2022-07-29T09:36:06;4.60;;;2.97;;
8714;SDS011;4394;51.208;8.904;2022-07-29T09:38:59;5.47;;;2.43;;
8714;SDS011;4394;51.208;8.904;2022-07-29T09:41:50;4.23;;;2.70;;
8714;SDS011;4394;51.208;8.904;2022-07-29T09:44:46;4.90;;;2.60;;
8714;SDS011;4394;51.208;8.904;2022-07-29T09:47:42;3.43;;;2.37;;
8714;SDS011;4394;51.208;8.904;2022-07-29T09:50:37;5.20;;;2.67;;
8714;SDS011;4394;51.208;8.904;2022-07-29T09:53:31;3.03;;;2.30;;
8714;SDS011;4394;51.208;8.904;2022-07-29T09:56:20;4.20;;;2.10;;
8714;SDS011;4394;51.208;8.904;2022-07-29T09:59:25;3.27;;;2.37;;
8714;SDS011;4394;51.208;8.904;2022-07-29T10:02:14;4.13;;;2.40;;
8714;SDS011;4394;51.208;8.904;2022-07-29T10:05:17;3.23;;;2.40;;
8714;SDS011;4394;51.208;8.904;2022-07-29T10:08:09;3.43;;;2.47;;
8714;SDS011;4394;51.208;8.904;2022-07-29T10:11:08;4.43;;;2.60;;
8714;SDS011;4394;51.208;8.904;2022-07-29T10:13:57;2.67;;;2.40;;
8714;SDS011;4394;51.208;8.904;2022-07-29T10:16:45;5.00;;;2.43;;
8714;SDS011;4394;51.208;8.904;2022-07-29T10:19:34;3.90;;;2.67;;
8714;SDS011;4394;51.208;8.904;2022-07-29T10:22:27;6.53;;;2.73;;
8714;SDS011;4394;51.208;8.904;2022-07-29T10:25:36;4.30;;;2.47;;
8714;SDS011;4394;51.208;8.904;2022-07-29T10:28:24;2.80;;;2.60;;
8714;SDS011;4394;51.208;8.904;2022-07-29T10:31:15;3.60;;;2.50;;
8714;SDS011;4394;51.208;8.904;2022-07-29T10:34:16;3.30;;;2.40;;
8714;SDS011;4394;51.208;8.904;2022-07-29T10:37:16;5.23;;;2.30;;
8714;SDS011;4394;51.208;8.904;2022-07-29T10:40:18;3.50;;;1.93;;
8714;SDS011;4394;51.208;8.904;2022-07-29T10:43:43;3.23;;;2.40;;
8714;SDS011;4394;51.208;8.904;2022-07-29T10:46:39;4.23;;;2.37;;
8714;SDS011;4394;51.208;8.904;2022-07-29T10:49:28;3.17;;;2.50;;
8714;SDS011;4394;51.208;8.904;2022-07-29T10:52:17;3.23;;;2.77;;
8714;SDS011;4394;51.208;8.904;2022-07-29T10:58:21;4.93;;;2.67;;
8714;SDS011;4394;51.208;8.904;2022-07-29T11:01:28;4.53;;;2.53;;
8714;SDS011;4394;51.208;8.904;2022-07-29T11:18:04;2.77;;;2.43;;
8714;SDS011;4394;51.208;8.904;2022-07-29T11:21:00;2.70;;;2.47;;
8714;SDS011;4394;51.208;8.904;2022-07-29T11:23:48;3.53;;;2.50;;
8714;SDS011;4394;51.208;8.904;2022-07-29T11:26:39;3.40;;;2.53;;
8714;SDS011;4394;51.208;8.904;2022-07-29T11:29:31;2.70;;;2.50;;
8714;SDS011;4394;51.208;8.904;2022-07-29T11:32:25;3.33;;;2.80;;
8714;SDS011;4394;51.208;8.904;2022-07-29T11:35:23;9.47;;;2.80;;
8714;SDS011;4394;51.208;8.904;2022-07-29T11:38:24;4.60;;;2.70;;
8714;SDS011;4394;51.208;8.904;2022-07-29T11:41:21;4.77;;;2.43;;
8714;SDS011;4394;51.208;8.904;2022-07-29T11:44:12;3.37;;;2.50;;
8714;SDS011;4394;51.208;8.904;2022-07-29T11:47:03;3.47;;;2.63;;
8714;SDS011;4394;51.208;8.904;2022-07-29T11:49:52;2.93;;;2.50;;
8714;SDS011;4394;51.208;8.904;2022-07-29T11:52:45;3.07;;;2.63;;
8714;SDS011;4394;51.208;8.904;2022-07-29T11:55:35;3.10;;;2.30;;
8714;SDS011;4394;51.208;8.904;2022-07-29T11:58:37;2.93;;;2.53;;
8714;SDS011;4394;51.208;8.904;2022-07-29T12:01:28;4.20;;;3.00;;
8714;SDS011;4394;51.208;8.904;2022-07-29T12:04:18;3.30;;;2.60;;
8714;SDS011;4394;51.208;8.904;2022-07-29T12:07:07;2.87;;;2.67;;
8714;SDS011;4394;51.208;8.904;2022-07-29T12:10:01;2.77;;;2.20;;
8714;SDS011;4394;51.208;8.904;2022-07-29T12:12:57;5.87;;;2.97;;
8714;SDS011;4394;51.208;8.904;2022-07-29T12:15:53;5.60;;;2.90;;
8714;SDS011;4394;51.208;8.904;2022-07-29T12:18:55;4.27;;;2.60;;
8714;SDS011;4394;51.208;8.904;2022-07-29T12:21:45;3.60;;;2.70;;
8714;SDS011;4394;51.208;8.904;2022-07-29T12:24:42;4.57;;;2.77;;
8714;SDS011;4394;51.208;8.904;2022-07-29T12:27:32;4.50;;;2.70;;
8714;SDS011;4394;51.208;8.904;2022-07-29T12:30:34;4.63;;;2.50;;
8714;SDS011;4394;51.208;8.904;2022-07-29T12:33:29;4.13;;;3.07;;
8714;SDS011;4394;51.208;8.904;2022-07-29T12:36:19;3.05;;;2.75;;
8714;SDS011;4394;51.208;8.904;2022-07-29T12:39:08;4.97;;;2.97;;
8714;SDS011;4394;51.208;8.904;2022-07-29T12:41:59;2.78;;;2.53;;
8714;SDS011;4394;51.208;8.904;2022-07-29T12:44:50;6.03;;;3.20;;
8714;SDS011;4394;51.208;8.904;2022-07-29T12:47:50;4.00;;;2.83;;
8714;SDS011;4394;51.208;8.904;2022-07-29T12:50:54;3.30;;;2.75;;
8714;SDS011;4394;51.208;8.904;2022-07-29T12:56:58;3.47;;;3.17;;
8714;SDS011;4394;51.208;8.904;2022-07-29T12:59:58;3.50;;;2.85;;
8714;SDS011;4394;51.208;8.904;2022-07-29T13:02:56;3.15;;;2.85;;
8714;SDS011;4394;51.208;8.904;2022-07-29T13:05:46;3.42;;;3.13;;
8714;SDS011;4394;51.208;8.904;2022-07-29T13:08:35;3.47;;;2.90;;
8714;SDS011;4394;51.208;8.904;2022-07-29T13:11:29;5.35;;;3.03;;
8714;SDS011;4394;51.208;8.904;2022-07-29T13:14:29;3.35;;;2.83;;
8714;SDS011;4394;51.208;8.904;2022-07-29T13:17:21;3.22;;;2.90;;
8714;SDS011;4394;51.208;8.904;2022-07-29T13:20:11;4.68;;;3.10;;
8714;SDS011;4394;51.208;8.904;2022-07-29T13:23:01;3.20;;;2.90;;
8714;SDS011;4394;51.208;8.904;2022-07-29T13:25:49;3.50;;;3.20;;
8714;SDS011;4394;51.208;8.904;2022-07-29T13:28:42;3.75;;;3.38;;
8714;SDS011;4394;51.208;8.904;2022-07-29T13:31:31;3.40;;;3.10;;
8714;SDS011;4394;51.208;8.904;2022-07-29T13:34:20;3.28;;;2.97;;
8714;SDS011;4394;51.208;8.904;2022-07-29T13:37:10;3.88;;;3.22;;
8714;SDS011;4394;51.208;8.904;2022-07-29T13:40:00;3.20;;;2.90;;
8714;SDS011;4394;51.208;8.904;2022-07-29T13:42:50;3.28;;;2.97;;
8714;SDS011;4394;51.208;8.904;2022-07-29T13:45:41;3.42;;;3.13;;
8714;SDS011;4394;51.208;8.904;2022-07-29T13:48:29;4.15;;;3.00;;
8714;SDS011;4394;51.208;8.904;2022-07-29T13:51:17;3.90;;;3.00;;
8714;SDS011;4394;51.208;8.904;2022-07-29T13:54:06;3.42;;;3.13;;
8714;SDS011;4394;51.208;8.904;2022-07-29T13:56:54;5.38;;;3.30;;
8714;SDS011;4394;51.208;8.904;2022-07-29T13:59:43;4.45;;;3.40;;
8714;SDS011;4394;51.208;8.904;2022-07-29T14:02:40;4.00;;;3.40;;
8714;SDS011;4394;51.208;8.904;2022-07-29T14:05:28;4.53;;;3.45;;
8714;SDS011;4394;51.208;8.904;2022-07-29T14:08:16;3.47;;;3.10;;
8714;SDS011;4394;51.208;8.904;2022-07-29T14:11:04;3.40;;;3.08;;
8714;SDS011;4394;51.208;8.904;2022-07-29T14:13:52;3.83;;;3.47;;
8714;SDS011;4394;51.208;8.904;2022-07-29T14:16:41;5.38;;;3.38;;
8714;SDS011;4394;51.208;8.904;2022-07-29T14:19:39;3.33;;;3.03;;
8714;SDS011;4394;51.208;8.904;2022-07-29T14:22:27;5.35;;;3.30;;
8714;SDS011;4394;51.208;8.904;2022-07-29T14:25:15;3.63;;;3.10;;
8714;SDS011;4394;51.208;8.904;2022-07-29T14:28:06;3.42;;;3.05;;
8714;SDS011;4394;51.208;8.904;2022-07-29T14:30:56;3.45;;;3.15;;
8714;SDS011;4394;51.208;8.904;2022-07-29T14:33:46;4.53;;;3.53;;
8714;SDS011;4394;51.208;8.904;2022-07-29T14:36:35;3.80;;;3.50;;
8714;SDS011;4394;51.208;8.904;2022-07-29T14:39:24;3.28;;;2.97;;
8714;SDS011;4394;51.208;8.904;2022-07-29T14:42:17;3.53;;;3.22;;
8714;SDS011;4394;51.208;8.904;2022-07-29T14:45:06;5.57;;;3.60;;
8714;SDS011;4394;51.208;8.904;2022-07-29T14:47:55;3.45;;;3.15;;
8714;SDS011;4394;51.208;8.904;2022-07-29T14:50:43;3.70;;;3.40;;
8714;SDS011;4394;51.208;8.904;2022-07-29T14:53:33;3.60;;;3.30;;
8714;SDS011;4394;51.208;8.904;2022-07-29T14:56:21;3.92;;;3.38;;
8714;SDS011;4394;51.208;8.904;2022-07-29T14:59:30;3.33;;;3.13;;
8714;SDS011;4394;51.208;8.904;2022-07-29T15:02:19;3.00;;;2.80;;
8714;SDS011;4394;51.208;8.904;2022-07-29T15:05:07;3.45;;;3.15;;
8714;SDS011;4394;51.208;8.904;2022-07-29T15:07:55;3.65;;;3.33;;
8714;SDS011;4394;51.208;8.904;2022-07-29T15:10:45;4.40;;;3.40;;
8714;SDS011;4394;51.208;8.904;2022-07-29T15:13:34;4.25;;;3.58;;
8714;SDS011;4394;51.208;8.904;2022-07-29T15:16:23;3.83;;;3.53;;
8714;SDS011;4394;51.208;8.904;2022-07-29T15:19:11;4.20;;;3.42;;
8714;SDS011;4394;51.208;8.904;2022-07-29T15:21:59;4.28;;;3.10;;
8714;SDS011;4394;51.208;8.904;2022-07-29T15:24:48;3.80;;;3.50;;
8714;SDS011;4394;51.208;8.904;2022-07-29T15:27:38;3.78;;;3.33;;
8714;SDS011;4394;51.208;8.904;2022-07-29T15:30:34;4.22;;;3.53;;
8714;SDS011;4394;51.208;8.904;2022-07-29T15:33:27;5.03;;;3.45;;
8714;SDS011;4394;51.208;8.904;2022-07-29T15:36:16;4.97;;;3.40;;
8714;SDS011;4394;51.208;8.904;2022-07-29T15:39:25;3.60;;;3.30;;
8714;SDS011;4394;51.208;8.904;2022-07-29T15:42:13;3.75;;;3.40;;
8714;SDS011;4394;51.208;8.904;2022-07-29T15:45:05;3.78;;;3.47;;
8714;SDS011;4394;51.208;8.904;2022-07-29T15:47:54;3.95;;;3.45;;
8714;SDS011;4394;51.208;8.904;2022-07-29T15:50:42;5.18;;;3.25;;
8714;SDS011;4394;51.208;8.904;2022-07-29T15:53:32;3.40;;;3.10;;
8714;SDS011;4394;51.208;8.904;2022-07-29T15:56:21;3.95;;;3.28;;
8714;SDS011;4394;51.208;8.904;2022-07-29T15:59:09;4.28;;;3.75;;
8714;SDS011;4394;51.208;8.904;2022-07-29T16:02:09;4.40;;;3.70;;
8714;SDS011;4394;51.208;8.904;2022-07-29T16:04:58;3.80;;;3.50;;
8714;SDS011;4394;51.208;8.904;2022-07-29T16:07:46;3.60;;;3.30;;
8714;SDS011;4394;51.208;8.904;2022-07-29T16:10:35;3.50;;;3.20;;
8714;SDS011;4394;51.208;8.904;2022-07-29T16:13:23;3.58;;;3.30;;
8714;SDS011;4394;51.208;8.904;2022-07-29T16:16:12;4.30;;;3.90;;
8714;SDS011;4394;51.208;8.904;2022-07-29T16:19:02;4.38;;;3.20;;
8714;SDS011;4394;51.208;8.904;2022-07-29T16:21:51;5.30;;;3.53;;
8714;SDS011;4394;51.208;8.904;2022-07-29T16:24:45;3.67;;;3.30;;
8714;SDS011;4394;51.208;8.904;2022-07-29T16:27:33;3.70;;;3.40;;
8714;SDS011;4394;51.208;8.904;2022-07-29T16:30:23;6.43;;;3.22;;
8714;SDS011;4394;51.208;8.904;2022-07-29T16:33:12;4.03;;;3.63;;
8714;SDS011;4394;51.208;8.904;2022-07-29T16:36:02;3.70;;;3.25;;
8714;SDS011;4394;51.208;8.904;2022-07-29T16:38:50;4.22;;;3.40;;
8714;SDS011;4394;51.208;8.904;2022-07-29T16:41:40;3.70;;;3.30;;
8714;SDS011;4394;51.208;8.904;2022-07-29T16:44:28;4.38;;;3.50;;
8714;SDS011;4394;51.208;8.904;2022-07-29T16:47:17;5.57;;;3.85;;
8714;SDS011;4394;51.208;8.904;2022-07-29T16:50:09;4.03;;;3.58;;
8714;SDS011;4394;51.208;8.904;2022-07-29T16:52:59;6.90;;;4.10;;
8714;SDS011;4394;51.208;8.904;2022-07-29T16:55:48;5.68;;;4.03;;
8714;SDS011;4394;51.208;8.904;2022-07-29T16:58:36;6.20;;;4.40;;
8714;SDS011;4394;51.208;8.904;2022-07-29T17:01:29;5.10;;;4.60;;
8714;SDS011;4394;51.208;8.904;2022-07-29T17:04:17;7.73;;;4.60;;
8714;SDS011;4394;51.208;8.904;2022-07-29T17:07:08;6.40;;;4.40;;
8714;SDS011;4394;51.208;8.904;2022-07-29T17:09:57;5.03;;;4.53;;
8714;SDS011;4394;51.208;8.904;2022-07-29T17:12:49;6.47;;;5.00;;
8714;SDS011;4394;51.208;8.904;2022-07-29T17:15:37;7.03;;;5.07;;
8714;SDS011;4394;51.208;8.904;2022-07-29T17:18:27;6.23;;;5.03;;
8714;SDS011;4394;51.208;8.904;2022-07-29T17:21:15;5.30;;;4.77;;
8714;SDS011;4394;51.208;8.904;2022-07-29T17:24:04;5.57;;;4.87;;
8714;SDS011;4394;51.208;8.904;2022-07-29T17:26:53;6.87;;;5.07;;
8714;SDS011;4394;51.208;8.904;2022-07-29T17:29:42;5.40;;;5.00;;
8714;SDS011;4394;51.208;8.904;2022-07-29T17:32:30;5.63;;;4.90;;
8714;SDS011;4394;51.208;8.904;2022-07-29T17:35:21;5.37;;;4.87;;
8714;SDS011;4394;51.208;8.904;2022-07-29T17:38:27;5.43;;;4.80;;
8714;SDS011;4394;51.208;8.904;2022-07-29T17:41:15;6.57;;;5.10;;
8714;SDS011;4394;51.208;8.904;2022-07-29T17:44:04;5.50;;;4.60;;
8714;SDS011;4394;51.208;8.904;2022-07-29T17:46:52;4.77;;;4.37;;
8714;SDS011;4394;51.208;8.904;2022-07-29T17:49:40;5.57;;;5.07;;
8714;SDS011;4394;51.208;8.904;2022-07-29T17:52:29;5.73;;;4.77;;
8714;SDS011;4394;51.208;8.904;2022-07-29T17:55:17;5.50;;;4.23;;
8714;SDS011;4394;51.208;8.904;2022-07-29T17:58:05;6.03;;;5.00;;
8714;SDS011;4394;51.208;8.904;2022-07-29T18:00:55;5.47;;;4.97;;
8714;SDS011;4394;51.208;8.904;2022-07-29T18:03:44;5.80;;;5.23;;
8714;SDS011;4394;51.208;8.904;2022-07-29T18:06:33;7.63;;;5.40;;